Huvudsida
METAR-TAF:

METAR-TAF

Flygplatser :

Flugplatz Wiener Neustadt/Ost

Wiener Neustadt, Österrike

latitud: 47-50-36N, longitud: 016-15-29E, höjd: 272 m

Aktuellt väderrapport

Denna rapport gjordes för 7 timmar och 38 minuter sedan, klockan 15:00 UTC
Vind 18 kt från syd i byarna ända upp till 28 kt
Temperatur
Tryck

METAR: LOAN 111500Z 17018G28KT 20KM FEW025CU SCT100AC BKN300CI

Tid: 23:38 (22:38 UTC)

Väderprognos

Denna rapport gjordes för 11 timmar och 38 minuter sedan, klockan 11:00 UTC
Prognos gäller från 11 kl. 12 UTC till 11 kl. 21 UTC
Vind 12 kt från syd
Sikt 10 km eller mer
Få moln på en höjd av 3000 ft
Temporärt
från 11 kl. 12 UTC till 11 kl. 20 UTC
Vind 16 kt från syd i byarna ända upp till 30 kt

TAF: LOAN 111100Z 1112/1121 17012KT 9999 FEW030 TEMPO 1112/1120 17016G30KT

Aktuella väderrapporter och prognoser från 4000 flygplatser (METAR- och TAF-rapporter).

De tillgängliga stationerna syns som gula och röda prickar på kartan.

För musen över prickarna för att se namnen på stationerna.

Klicka sedan för att få väderrapporter och prognoser.

För att ändra kartan: Klicka på de gröna knapparna med ett svart kors på för att zooma in; den gröna knappen med ett streck på för att zooma ut; eller på de gröna pilarna för angränsande kartor.


METAR-TAF: